»·PEaware :: ARG1301 KGEG-KSEA

ARG1301 :: KGEG-KSEA

FLIGHT INFORMATION

Flight Status: Arrived
Operator:
Aerolineas Argentinas
More flights by this operator :: More flights under this callsign
Pilot: Luis S. (63)
Aircraft: BOEING 737-800
(B738)
More flights by this aircraft type
Origin: KGEG Spokane Intl
United States
Destination: KSEA Seattle-Tacoma Intl
United States
More flights between these airports :: More routes between these airports
Route: +TEMPL GLASR1
File this flight plan on PilotEdge
Remarks:
Altitude:
(Current/Filed)
240ft
Speed:
(Current/Filed)
350kts
Departed: 14-Sep-18 10:18 AM
Arrived: 14-Sep-18 11:03 AM
Distance/Time
Traveled:
194nm/0:45
Distance/Time
To Go:
Arrived

Flight Plot

Page will automatically refresh every two minutes.

Flight plan parsing failed; only flown route is shown


Map Options




Map Legend


Flown Route
Filed Route
Departure Airport
Arrival Airport
Navaid (VOR, NDB)
Fix

Horizontal Profiles

Position Reports

Time Latitude Longitude Heading Altitude Ground
Speed
14-Sep-18 09:08 47.626069 -117.534843 217 2384ft 0kts
14-Sep-18 09:09 47.626069 -117.534843 217 2384ft 0kts
14-Sep-18 09:10 47.626069 -117.534843 217 2384ft 0kts
14-Sep-18 09:11 47.626069 -117.534843 217 2384ft 0kts
14-Sep-18 09:12 47.626069 -117.534843 217 2384ft 0kts
14-Sep-18 09:13 47.626069 -117.534843 217 2384ft 0kts
14-Sep-18 09:14 47.626069 -117.534843 217 2384ft 0kts
14-Sep-18 09:15 47.626069 -117.534843 217 2384ft 0kts
14-Sep-18 09:16 47.626069 -117.534843 217 2384ft 0kts
14-Sep-18 09:17 47.626069 -117.534843 217 2384ft 0kts
14-Sep-18 09:18 47.626069 -117.534843 217 2384ft 0kts
14-Sep-18 09:19 47.626069 -117.534843 217 2384ft 0kts
14-Sep-18 09:20 47.626069 -117.534843 217 2384ft 0kts
14-Sep-18 09:21 47.626069 -117.534843 217 2384ft 0kts
14-Sep-18 09:22 47.626069 -117.534843 217 2384ft 0kts
14-Sep-18 09:23 47.626069 -117.534843 217 2384ft 0kts
14-Sep-18 09:24 47.626069 -117.534843 217 2384ft 0kts
14-Sep-18 09:25 47.626069 -117.534843 217 2384ft 0kts
14-Sep-18 09:26 47.626069 -117.534843 217 2384ft 0kts
14-Sep-18 09:27 47.626069 -117.534843 217 2384ft 0kts
14-Sep-18 09:28 47.626069 -117.534843 217 2384ft 0kts
14-Sep-18 09:29 47.626069 -117.534843 217 2384ft 0kts
14-Sep-18 09:30 47.626069 -117.534843 217 2384ft 0kts
14-Sep-18 09:31 47.626069 -117.534843 217 2384ft 0kts
14-Sep-18 09:32 47.626069 -117.534843 217 2384ft 0kts
14-Sep-18 09:33 47.626069 -117.534843 217 2384ft 0kts
14-Sep-18 09:34 47.626069 -117.534843 217 2384ft 0kts
14-Sep-18 09:35 47.626069 -117.534843 217 2384ft 0kts
14-Sep-18 09:36 47.626069 -117.534843 217 2384ft 0kts
14-Sep-18 09:37 47.626069 -117.534843 217 2384ft 0kts
14-Sep-18 09:38 47.626069 -117.534843 217 2384ft 0kts
14-Sep-18 09:39 47.626069 -117.534843 217 2384ft 0kts
14-Sep-18 09:40 47.626069 -117.534843 217 2384ft 0kts
14-Sep-18 09:41 47.626069 -117.534843 217 2384ft 0kts
14-Sep-18 09:42 47.626069 -117.534843 217 2384ft 0kts
14-Sep-18 09:43 47.626069 -117.534843 217 2384ft 0kts
14-Sep-18 09:44 47.626069 -117.534843 217 2384ft 0kts
14-Sep-18 09:45 47.626069 -117.534843 217 2384ft 0kts
14-Sep-18 09:46 47.626069 -117.534843 217 2384ft 0kts
14-Sep-18 09:47 47.626069 -117.534843 217 2384ft 0kts
14-Sep-18 09:48 47.626069 -117.534843 217 2384ft 0kts
14-Sep-18 09:49 47.626069 -117.534843 217 2384ft 0kts
14-Sep-18 09:50 47.626069 -117.534843 217 2384ft 0kts
14-Sep-18 09:51 47.626069 -117.534843 217 2384ft 0kts
14-Sep-18 09:52 47.626069 -117.534843 217 2384ft 0kts
14-Sep-18 09:53 47.626069 -117.534843 217 2384ft 0kts
14-Sep-18 09:54 47.626069 -117.534843 217 2384ft 0kts
14-Sep-18 09:55 47.626069 -117.534843 217 2384ft 0kts
14-Sep-18 09:56 47.626069 -117.534843 217 2384ft 0kts
14-Sep-18 09:57 47.626069 -117.534843 217 2384ft 0kts
14-Sep-18 09:58 47.626069 -117.534843 217 2384ft 0kts
14-Sep-18 09:59 47.626069 -117.534843 217 2384ft 0kts
14-Sep-18 10:00 47.626069 -117.534843 217 2384ft 0kts
14-Sep-18 10:01 47.626069 -117.534843 217 2384ft 0kts
14-Sep-18 10:02 47.626069 -117.534843 217 2384ft 0kts
14-Sep-18 10:03 47.626069 -117.534843 217 2384ft 0kts
14-Sep-18 10:04 47.626069 -117.534843 217 2384ft 0kts
14-Sep-18 10:05 47.626069 -117.534843 217 2384ft 0kts
14-Sep-18 10:06 47.626069 -117.534843 217 2384ft 0kts
14-Sep-18 10:07 47.626069 -117.534843 217 2384ft 0kts
14-Sep-18 10:08 47.626069 -117.534843 217 2384ft 0kts
14-Sep-18 10:09 47.626069 -117.534843 217 2384ft 0kts
14-Sep-18 10:10 47.626069 -117.534843 217 2384ft 0kts
14-Sep-18 10:11 47.626069 -117.534843 217 2384ft 0kts
14-Sep-18 10:12 47.626101 -117.534807 217 2384ft 2kts
14-Sep-18 10:13 47.626348 -117.534261 109 2384ft 5kts
14-Sep-18 10:14 47.625496 -117.530898 46 2384ft 12kts
14-Sep-18 10:15 47.629180 -117.525360 45 2384ft 29kts
14-Sep-18 10:16 47.632271 -117.520643 63 2384ft 0kts
14-Sep-18 10:17 47.632271 -117.520643 63 2384ft 0kts
14-Sep-18 10:18 47.632276 -117.520628 64 2384ft 1kts
14-Sep-18 10:19 47.630970 -117.518625 225 2384ft 0kts
14-Sep-18 10:20 47.621445 -117.532924 224 2414ft 164kts
14-Sep-18 10:21 47.583272 -117.584867 218 5232ft 204kts
14-Sep-18 10:22 47.539335 -117.645227 220 8480ft 223kts
14-Sep-18 10:23 47.507613 -117.726758 264 11042ft 259kts
14-Sep-18 10:24 47.519212 -117.834712 277 13498ft 283kts
14-Sep-18 10:25 47.538901 -117.952402 274 15301ft 316kts
14-Sep-18 10:26 47.547895 -118.087377 271 17426ft 336kts
14-Sep-18 10:27 47.558123 -118.225779 271 19918ft 342kts
14-Sep-18 10:28 47.569424 -118.364582 271 22392ft 339kts
14-Sep-18 10:29 47.581548 -118.504290 272 24001ft 356kts
14-Sep-18 10:30 47.601102 -118.654465 277 24072ft 374kts
14-Sep-18 10:31 47.624101 -118.803082 277 24070ft 367kts
14-Sep-18 10:32 47.646627 -118.949637 277 24065ft 363kts
14-Sep-18 10:33 47.668699 -119.094117 277 24071ft 359kts
14-Sep-18 10:34 47.691561 -119.237513 277 24072ft 358kts
14-Sep-18 10:35 47.714239 -119.381285 277 24080ft 359kts
14-Sep-18 10:36 47.734379 -119.526702 271 24081ft 359kts
14-Sep-18 10:37 47.744740 -119.674527 271 24080ft 361kts
14-Sep-18 10:38 47.755923 -119.822815 271 24079ft 364kts
14-Sep-18 10:39 47.767074 -119.968651 271 24070ft 367kts
14-Sep-18 10:40 47.778840 -120.119823 272 24053ft 371kts
14-Sep-18 10:41 47.790443 -120.272170 271 24060ft 373kts
14-Sep-18 10:42 47.801320 -120.425934 271 24059ft 375kts
14-Sep-18 10:43 47.812275 -120.580536 271 23938ft 376kts
14-Sep-18 10:44 47.822883 -120.730047 271 21919ft 353kts
14-Sep-18 10:45 47.832522 -120.870141 271 20131ft 328kts
14-Sep-18 10:46 47.840948 -120.999404 271 18658ft 302kts
14-Sep-18 10:47 47.848971 -121.119168 272 17208ft 283kts
14-Sep-18 10:48 47.857137 -121.236089 272 15846ft 289kts
14-Sep-18 10:49 47.864731 -121.356998 272 14498ft 298kts
14-Sep-18 10:50 47.872433 -121.480873 273 13202ft 303kts
14-Sep-18 10:51 47.880211 -121.604382 273 12214ft 298kts
14-Sep-18 10:52 47.876263 -121.722715 237 12119ft 291kts
14-Sep-18 10:53 47.824472 -121.818447 245 12004ft 300kts
14-Sep-18 10:54 47.804062 -121.940245 254 9572ft 302kts
14-Sep-18 10:55 47.785196 -122.054547 256 7412ft 272kts
14-Sep-18 10:56 47.767574 -122.157328 253 5879ft 248kts
14-Sep-18 10:57 47.751980 -122.252737 245 4514ft 228kts
14-Sep-18 10:58 47.707560 -122.299948 207 3982ft 194kts
14-Sep-18 10:59 47.658859 -122.304721 170 3844ft 171kts
14-Sep-18 11:00 47.617849 -122.309043 174 3627ft 137kts
14-Sep-18 11:01 47.578345 -122.310902 175 2626ft 140kts
14-Sep-18 11:02 47.541199 -122.310439 181 2068ft 131kts
14-Sep-18 11:03 47.503266 -122.311018 179 1268ft 137kts
14-Sep-18 11:04 47.466080 -122.311256 177 554ft 126kts
14-Sep-18 11:05 47.450413 -122.311093 180 442ft 19kts
14-Sep-18 11:06 47.446317 -122.309024 144 442ft 15kts
14-Sep-18 11:07 47.444270 -122.306202 156 442ft 11kts
14-Sep-18 11:08 47.442793 -122.304085 134 442ft 2kts
14-Sep-18 11:09 47.442675 -122.303906 134 442ft 0kts
14-Sep-18 11:10 47.442675 -122.303906 134 442ft 0kts
14-Sep-18 11:11 47.442675 -122.303906 134 442ft 0kts

Navigation Log

Ident Type
Flight plan parsing failed, navigation log unavailable